Time;durP1;ratioP1;P1;durP2;ratioP2;P2;SDS_P1;SDS_P2;PMS_P1;PMS_P2;Temp;Humidity;BMP_temperature;BMP_pressure;BME280_temperature;BME280_humidity;BME280_pressure;Samples;Min_cycle;Max_cycle;Signal;HPM_P1;HPM_P2
2021/07/01 00:00:02;;;;;;;31.20;14.80;;;;;;;;;;5064134;28;20049;-65
2021/07/01 00:02:28;;;;;;;30.50;14.63;;;;;;;;;;5057075;28;20057;-65
2021/07/01 00:04:53;;;;;;;23.70;13.32;;;;;;;;;;5062822;28;20078;-65
2021/07/01 00:07:18;;;;;;;36.20;13.90;;;;;;;;;;5057904;28;20025;-65
2021/07/01 00:09:43;;;;;;;23.27;13.23;;;;;;;;;;5059371;28;20299;-65
2021/07/01 00:12:08;;;;;;;34.60;15.83;;;;;;;;;;5053106;28;20347;-65
2021/07/01 00:14:34;;;;;;;23.87;12.93;;;;;;;;;;5059056;28;20316;-65
2021/07/01 00:16:59;;;;;;;29.02;13.77;;;;;;;;;;5052164;28;20639;-65
2021/07/01 00:19:24;;;;;;;25.53;13.37;;;;;;;;;;5056149;28;20017;-65
2021/07/01 00:21:49;;;;;;;27.30;14.27;;;;;;;;;;5067146;28;20282;-65
2021/07/01 00:24:15;;;;;;;28.98;13.75;;;;;;;;;;5070169;28;20028;-65
2021/07/01 00:26:40;;;;;;;33.65;14.95;;;;;;;;;;5053282;28;20041;-65
2021/07/01 00:29:05;;;;;;;33.40;15.20;;;;;;;;;;5060979;28;20060;-65
2021/07/01 00:31:31;;;;;;;33.80;16.30;;;;;;;;;;5062273;28;20025;-65
2021/07/01 00:33:57;;;;;;;31.42;15.27;;;;;;;;;;5063883;28;20020;-65
2021/07/01 00:36:22;;;;;;;28.20;15.43;;;;;;;;;;5064975;28;20079;-65
2021/07/01 00:38:49;;;;;;;35.80;16.17;;;;;;;;;;5059797;28;20044;-65
2021/07/01 00:41:15;;;;;;;30.48;15.93;;;;;;;;;;5055934;28;20373;-65
2021/07/01 00:43:40;;;;;;;27.73;15.20;;;;;;;;;;5051736;28;20060;-65
2021/07/01 00:46:05;;;;;;;32.00;14.40;;;;;;;;;;5051341;28;20272;-65
2021/07/01 00:48:31;;;;;;;29.90;13.82;;;;;;;;;;5050180;28;20439;-65
2021/07/01 00:50:56;;;;;;;25.80;12.80;;;;;;;;;;5066077;28;20060;-65
2021/07/01 00:53:21;;;;;;;25.58;12.30;;;;;;;;;;5062116;28;20278;-65
2021/07/01 00:55:47;;;;;;;22.55;12.05;;;;;;;;;;5055189;28;20029;-65
2021/07/01 00:58:12;;;;;;;30.60;13.98;;;;;;;;;;5055295;28;20021;-65
2021/07/01 01:03:09;;;;;;;18.10;10.80;;;;;;;;;;5064280;28;20027;-65
2021/07/01 01:05:34;;;;;;;19.83;11.63;;;;;;;;;;5064325;28;20099;-71
2021/07/01 01:07:59;;;;;;;14.98;9.20;;;;;;;;;;5064814;28;20130;-65
2021/07/01 01:10:25;;;;;;;17.63;10.18;;;;;;;;;;5053426;28;20112;-65
2021/07/01 01:12:50;;;;;;;19.88;10.30;;;;;;;;;;5062306;28;20460;-65
2021/07/01 01:15:15;;;;;;;26.17;11.43;;;;;;;;;;5058614;28;20028;-65
2021/07/01 01:17:46;;;;;;;21.38;10.52;;;;;;;;;;5051157;28;20275;-65
2021/07/01 01:20:12;;;;;;;19.98;11.63;;;;;;;;;;5037620;28;20481;-65
2021/07/01 01:22:37;;;;;;;20.80;10.77;;;;;;;;;;5064072;28;20104;-65
2021/07/01 01:25:03;;;;;;;24.63;13.35;;;;;;;;;;5057317;28;20047;-65
2021/07/01 01:27:28;;;;;;;21.67;11.15;;;;;;;;;;5060017;28;20056;-65
2021/07/01 01:29:53;;;;;;;23.63;11.20;;;;;;;;;;5051427;28;20032;-65
2021/07/01 01:32:18;;;;;;;23.33;13.23;;;;;;;;;;5057981;28;20033;-65
2021/07/01 01:34:44;;;;;;;26.10;13.10;;;;;;;;;;5063468;28;20362;-65
2021/07/01 01:37:09;;;;;;;29.38;13.25;;;;;;;;;;5051649;28;20624;-65
2021/07/01 01:39:34;;;;;;;30.10;12.70;;;;;;;;;;5043028;28;20104;-65
2021/07/01 01:41:59;;;;;;;27.52;12.85;;;;;;;;;;5058340;28;20024;-65
2021/07/01 01:44:25;;;;;;;22.83;11.63;;;;;;;;;;5047414;28;20028;-65
2021/07/01 01:46:50;;;;;;;27.20;12.55;;;;;;;;;;5049820;28;20271;-65
2021/07/01 01:49:17;;;;;;;30.08;12.05;;;;;;;;;;5051357;28;20017;-65
2021/07/01 01:51:43;;;;;;;29.13;12.98;;;;;;;;;;5051228;28;20516;-65
2021/07/01 01:54:08;;;;;;;25.00;12.37;;;;;;;;;;5045127;28;20028;-65
2021/07/01 01:56:37;;;;;;;25.63;13.10;;;;;;;;;;5044759;28;20282;-65
2021/07/01 01:59:06;;;;;;;32.38;13.68;;;;;;;;;;5051350;28;20123;-65
2021/07/01 02:01:31;;;;;;;31.23;13.77;;;;;;;;;;5050825;28;20066;-65
2021/07/01 02:03:57;;;;;;;29.17;12.80;;;;;;;;;;5059499;28;20142;-65
2021/07/01 02:06:22;;;;;;;25.85;11.93;;;;;;;;;;5050774;28;20477;-65
2021/07/01 02:08:47;;;;;;;23.50;11.23;;;;;;;;;;5059872;28;20509;-65
2021/07/01 02:11:12;;;;;;;21.97;11.40;;;;;;;;;;5051070;28;20263;-65
2021/07/01 02:13:37;;;;;;;23.53;12.27;;;;;;;;;;5057984;28;20264;-65
2021/07/01 02:16:03;;;;;;;16.67;10.17;;;;;;;;;;5061994;28;20314;-65
2021/07/01 02:18:28;;;;;;;22.17;10.32;;;;;;;;;;5070081;28;20251;-65
2021/07/01 02:20:53;;;;;;;19.92;11.55;;;;;;;;;;5061435;28;20017;-64
2021/07/01 02:23:18;;;;;;;23.83;10.27;;;;;;;;;;5055876;28;20444;-65
2021/07/01 02:25:43;;;;;;;24.20;10.33;;;;;;;;;;5057683;28;20278;-65
2021/07/01 02:28:09;;;;;;;24.35;11.98;;;;;;;;;;5063240;28;20318;-65
2021/07/01 02:30:34;;;;;;;22.10;10.73;;;;;;;;;;5059366;28;20036;-65
2021/07/01 02:32:59;;;;;;;27.67;12.45;;;;;;;;;;5065174;28;20337;-65
2021/07/01 02:35:24;;;;;;;21.07;11.77;;;;;;;;;;5051677;28;20021;-65
2021/07/01 02:37:49;;;;;;;20.55;10.90;;;;;;;;;;5063669;28;20725;-65
2021/07/01 02:40:15;;;;;;;23.13;12.35;;;;;;;;;;5057535;28;20025;-65
2021/07/01 02:42:41;;;;;;;21.05;11.15;;;;;;;;;;5068039;28;20032;-65
2021/07/01 02:45:07;;;;;;;23.42;12.70;;;;;;;;;;5048453;28;20033;-65
2021/07/01 02:47:32;;;;;;;21.48;11.55;;;;;;;;;;5042673;28;20040;-65
2021/07/01 02:49:57;;;;;;;24.17;13.27;;;;;;;;;;5034277;28;20028;-65
2021/07/01 02:52:23;;;;;;;27.73;12.38;;;;;;;;;;5054576;28;20263;-65
2021/07/01 02:54:48;;;;;;;26.90;12.97;;;;;;;;;;5058256;28;20032;-65
2021/07/01 02:57:13;;;;;;;27.73;13.30;;;;;;;;;;5055423;28;20695;-65
2021/07/01 02:59:38;;;;;;;27.90;13.70;;;;;;;;;;5054729;28;20413;-65
2021/07/01 03:02:03;;;;;;;24.50;13.17;;;;;;;;;;5055456;28;20671;-65
2021/07/01 03:04:29;;;;;;;30.30;13.90;;;;;;;;;;5056568;28;20282;-64
2021/07/01 03:06:54;;;;;;;30.40;13.13;;;;;;;;;;5061869;28;20021;-65
2021/07/01 03:09:19;;;;;;;28.77;14.13;;;;;;;;;;5056971;28;20817;-65
2021/07/01 03:11:44;;;;;;;31.73;13.80;;;;;;;;;;5056222;28;20472;-65
2021/07/01 03:14:09;;;;;;;29.67;14.68;;;;;;;;;;5049928;28;20267;-65
2021/07/01 03:16:35;;;;;;;28.80;14.50;;;;;;;;;;5039273;28;20477;-65
2021/07/01 03:19:00;;;;;;;26.40;13.60;;;;;;;;;;5051777;28;20263;-65
2021/07/01 03:21:25;;;;;;;28.00;14.52;;;;;;;;;;5068674;28;20017;-65
2021/07/01 03:23:51;;;;;;;27.92;14.55;;;;;;;;;;5065067;28;20028;-65
2021/07/01 03:26:16;;;;;;;29.15;13.93;;;;;;;;;;5052351;28;20025;-65
2021/07/01 03:28:42;;;;;;;37.08;14.05;;;;;;;;;;5057088;28;20021;-65
2021/07/01 03:31:08;;;;;;;33.47;14.75;;;;;;;;;;5067662;28;20028;-65
2021/07/01 03:33:33;;;;;;;25.63;13.00;;;;;;;;;;5061102;28;20047;-65
2021/07/01 03:35:59;;;;;;;30.02;14.57;;;;;;;;;;5059524;28;20134;-65
2021/07/01 03:38:24;;;;;;;25.45;12.80;;;;;;;;;;5041995;28;20560;-65
2021/07/01 03:40:49;;;;;;;25.55;13.52;;;;;;;;;;5058154;28;20029;-65
2021/07/01 03:43:15;;;;;;;28.23;13.27;;;;;;;;;;5053595;28;20424;-65
2021/07/01 03:45:40;;;;;;;24.55;13.88;;;;;;;;;;5063365;28;20017;-65
2021/07/01 03:48:05;;;;;;;29.23;13.45;;;;;;;;;;5052455;28;20405;-65
2021/07/01 03:50:31;;;;;;;26.27;13.15;;;;;;;;;;5062765;28;20480;-65
2021/07/01 03:52:56;;;;;;;27.50;13.20;;;;;;;;;;5070704;28;20050;-65
2021/07/01 03:55:21;;;;;;;28.47;13.70;;;;;;;;;;5060890;28;20039;-65
2021/07/01 03:57:46;;;;;;;30.77;13.20;;;;;;;;;;5067825;28;20278;-65
2021/07/01 04:00:12;;;;;;;27.08;13.20;;;;;;;;;;5062101;28;20013;-65
2021/07/01 04:02:37;;;;;;;24.45;13.38;;;;;;;;;;5060984;28;20047;-65
2021/07/01 04:05:03;;;;;;;32.95;15.48;;;;;;;;;;5067389;28;20032;-65
2021/07/01 04:07:28;;;;;;;29.02;13.15;;;;;;;;;;5057270;28;20493;-65
2021/07/01 04:09:54;;;;;;;35.87;13.57;;;;;;;;;;5059102;28;20377;-65
2021/07/01 04:12:19;;;;;;;26.30;13.17;;;;;;;;;;5050166;28;20283;-65
2021/07/01 04:14:44;;;;;;;25.60;13.95;;;;;;;;;;5055275;28;20268;-65
2021/07/01 04:17:10;;;;;;;29.13;14.10;;;;;;;;;;5037682;28;20076;-65
2021/07/01 04:19:36;;;;;;;33.38;16.00;;;;;;;;;;5038770;28;20262;-65
2021/07/01 04:22:01;;;;;;;26.77;12.70;;;;;;;;;;5069728;28;20013;-65
2021/07/01 04:24:26;;;;;;;28.90;12.70;;;;;;;;;;5053123;28;20021;-65
2021/07/01 04:26:51;;;;;;;30.38;14.23;;;;;;;;;;5062012;28;20473;-65
2021/07/01 04:29:16;;;;;;;31.38;14.00;;;;;;;;;;5053373;28;20079;-65
2021/07/01 04:31:42;;;;;;;24.00;13.85;;;;;;;;;;5050690;28;20028;-65
2021/07/01 04:34:07;;;;;;;27.17;13.98;;;;;;;;;;5051448;28;20088;-65
2021/07/01 04:36:32;;;;;;;30.35;15.07;;;;;;;;;;5051799;28;20167;-65
2021/07/01 04:38:58;;;;;;;30.73;15.85;;;;;;;;;;5064288;28;20518;-65
2021/07/01 04:41:23;;;;;;;33.95;16.52;;;;;;;;;;5060197;28;20368;-65
2021/07/01 04:43:48;;;;;;;34.10;16.40;;;;;;;;;;5058549;28;20021;-65
2021/07/01 04:46:14;;;;;;;35.15;15.73;;;;;;;;;;5047990;28;20021;-65
2021/07/01 04:48:40;;;;;;;39.15;18.23;;;;;;;;;;5049865;28;20029;-65
2021/07/01 04:51:05;;;;;;;36.83;18.85;;;;;;;;;;5065060;28;20025;-65
2021/07/01 04:53:31;;;;;;;35.85;18.95;;;;;;;;;;5068367;28;20090;-65
2021/07/01 04:55:56;;;;;;;43.47;17.23;;;;;;;;;;5051977;28;20484;-65
2021/07/01 04:58:21;;;;;;;34.28;17.15;;;;;;;;;;5051091;28;20259;-65
2021/07/01 05:00:48;;;;;;;37.03;16.13;;;;;;;;;;5055574;28;20028;-65
2021/07/01 05:03:13;;;;;;;43.30;16.67;;;;;;;;;;5051158;28;20329;-64
2021/07/01 05:05:38;;;;;;;40.67;15.18;;;;;;;;;;5058917;28;20016;-64
2021/07/01 05:08:04;;;;;;;34.50;16.77;;;;;;;;;;5060431;28;20222;-65
2021/07/01 05:10:29;;;;;;;31.23;16.38;;;;;;;;;;5058733;28;20435;-64
2021/07/01 05:12:55;;;;;;;28.55;15.55;;;;;;;;;;5052148;28;20105;-64
2021/07/01 05:15:22;;;;;;;33.58;17.08;;;;;;;;;;5048583;28;20028;-64
2021/07/01 05:17:47;;;;;;;42.75;17.77;;;;;;;;;;5036181;28;20079;-65
2021/07/01 05:20:12;;;;;;;35.83;16.50;;;;;;;;;;5055738;28;20032;-64
2021/07/01 05:22:38;;;;;;;36.10;14.88;;;;;;;;;;5060624;28;20638;-64
2021/07/01 05:25:03;;;;;;;35.27;16.80;;;;;;;;;;5061924;28;20021;-64
2021/07/01 05:27:28;;;;;;;36.20;15.85;;;;;;;;;;5046746;28;20316;-64
2021/07/01 05:29:54;;;;;;;41.85;17.50;;;;;;;;;;5046600;28;20033;-65
2021/07/01 05:32:19;;;;;;;47.10;17.67;;;;;;;;;;5052023;28;20017;-64
2021/07/01 05:34:44;;;;;;;32.40;14.23;;;;;;;;;;5066425;28;20169;-65
2021/07/01 05:37:09;;;;;;;37.53;14.85;;;;;;;;;;5060828;28;20051;-64
2021/07/01 05:39:35;;;;;;;30.77;13.95;;;;;;;;;;5049716;28;20052;-64
2021/07/01 05:42:00;;;;;;;31.38;13.60;;;;;;;;;;5065453;28;20029;-65
2021/07/01 05:44:25;;;;;;;34.20;14.50;;;;;;;;;;5046663;28;20063;-64
2021/07/01 05:46:50;;;;;;;31.92;14.68;;;;;;;;;;5047878;28;20025;-64
2021/07/01 05:49:16;;;;;;;32.33;13.05;;;;;;;;;;5048228;28;20017;-64
2021/07/01 05:51:43;;;;;;;21.80;10.07;;;;;;;;;;5042403;28;20021;-64
2021/07/01 05:56:36;;;;;;;24.95;9.57;;;;;;;;;;5047292;28;20035;-65
2021/07/01 05:59:05;;;;;;;26.45;8.95;;;;;;;;;;5052733;28;20017;-64
2021/07/01 06:01:30;;;;;;;23.40;8.40;;;;;;;;;;5046619;28;20020;-65
2021/07/01 06:03:55;;;;;;;18.70;9.32;;;;;;;;;;5054997;28;20021;-64
2021/07/01 06:06:21;;;;;;;23.33;10.20;;;;;;;;;;5051108;28;20021;-64
2021/07/01 06:08:48;;;;;;;29.42;10.77;;;;;;;;;;5048220;28;20760;-64
2021/07/01 06:11:14;;;;;;;22.20;11.10;;;;;;;;;;5049725;28;20025;-64
2021/07/01 06:13:42;;;;;;;32.85;13.05;;;;;;;;;;5049762;28;20025;-64
2021/07/01 06:16:17;;;;;;;36.13;13.73;;;;;;;;;;5047193;28;20025;-65
2021/07/01 06:18:42;;;;;;;38.58;14.27;;;;;;;;;;5049714;28;20025;-65
2021/07/01 06:21:08;;;;;;;32.95;12.65;;;;;;;;;;5049263;28;20075;-65
2021/07/01 06:23:36;;;;;;;37.38;11.93;;;;;;;;;;5048883;28;20017;-65
2021/07/01 06:26:01;;;;;;;30.70;11.60;;;;;;;;;;5061066;28;20024;-65
2021/07/01 06:28:26;;;;;;;41.60;12.20;;;;;;;;;;5067011;28;20112;-65
2021/07/01 06:30:52;;;;;;;29.92;11.48;;;;;;;;;;5048955;28;20274;-65
2021/07/01 06:33:18;;;;;;;28.90;11.35;;;;;;;;;;5050071;28;20107;-65
2021/07/01 06:35:48;;;;;;;43.22;13.50;;;;;;;;;;5043216;28;20382;-65
2021/07/01 06:38:14;;;;;;;30.80;13.73;;;;;;;;;;5030060;28;20014;-65
2021/07/01 06:40:40;;;;;;;25.02;10.52;;;;;;;;;;5029709;28;20032;-65
2021/07/01 06:43:05;;;;;;;36.67;12.65;;;;;;;;;;5033471;28;20012;-65
2021/07/01 06:45:31;;;;;;;29.27;11.52;;;;;;;;;;5049231;28;20504;-65
2021/07/01 06:47:57;;;;;;;39.78;12.30;;;;;;;;;;5043247;28;20396;-65
2021/07/01 06:50:24;;;;;;;29.92;11.07;;;;;;;;;;5033914;28;20031;-65
2021/07/01 06:52:50;;;;;;;28.73;11.15;;;;;;;;;;5033494;28;20017;-64
2021/07/01 06:55:16;;;;;;;38.17;12.38;;;;;;;;;;5040902;28;20017;-64
2021/07/01 06:57:41;;;;;;;26.27;10.90;;;;;;;;;;5059437;28;20074;-64
2021/07/01 07:00:08;;;;;;;32.13;12.52;;;;;;;;;;5054174;28;20014;-65
2021/07/01 07:02:34;;;;;;;30.25;10.88;;;;;;;;;;5052612;28;20025;-64
2021/07/01 07:05:06;;;;;;;51.95;13.07;;;;;;;;;;5052218;28;20036;-64
2021/07/01 07:07:31;;;;;;;27.88;10.98;;;;;;;;;;5059332;28;20060;-64
2021/07/01 07:10:00;;;;;;;29.48;12.20;;;;;;;;;;5059460;28;20060;-64
2021/07/01 07:12:26;;;;;;;22.73;10.43;;;;;;;;;;5064146;28;20017;-64
2021/07/01 07:14:51;;;;;;;29.42;10.35;;;;;;;;;;5066724;28;20095;-64
2021/07/01 07:17:16;;;;;;;23.23;10.52;;;;;;;;;;5052348;28;20100;-64
2021/07/01 07:19:42;;;;;;;24.25;10.13;;;;;;;;;;5046451;28;20013;-64
2021/07/01 07:22:09;;;;;;;33.00;10.52;;;;;;;;;;5058870;28;20050;-64
2021/07/01 07:24:35;;;;;;;31.23;10.00;;;;;;;;;;5052484;28;20477;-64
2021/07/01 07:27:02;;;;;;;30.73;10.63;;;;;;;;;;5065199;28;20408;-64
2021/07/01 07:29:31;;;;;;;31.45;11.63;;;;;;;;;;5069365;28;20384;-64
2021/07/01 07:31:58;;;;;;;30.95;11.00;;;;;;;;;;5060472;28;20102;-64
2021/07/01 07:34:24;;;;;;;33.63;10.93;;;;;;;;;;5066182;28;20016;-64
2021/07/01 07:36:50;;;;;;;31.53;11.60;;;;;;;;;;5068719;28;20086;-64
2021/07/01 07:39:15;;;;;;;27.63;11.55;;;;;;;;;;5059520;28;20259;-64
2021/07/01 07:41:41;;;;;;;30.40;11.20;;;;;;;;;;5072354;28;20047;-64
2021/07/01 07:44:07;;;;;;;27.55;10.35;;;;;;;;;;5065893;28;20279;-64
2021/07/01 07:46:32;;;;;;;29.85;10.73;;;;;;;;;;5057320;28;20035;-64
2021/07/01 07:48:58;;;;;;;28.30;10.20;;;;;;;;;;5063295;28;20025;-64
2021/07/01 07:51:25;;;;;;;23.85;10.55;;;;;;;;;;5045996;28;20070;-65
2021/07/01 07:53:52;;;;;;;21.25;9.15;;;;;;;;;;5051011;28;20533;-64
2021/07/01 07:56:21;;;;;;;27.40;9.43;;;;;;;;;;5062136;28;20029;-64
2021/07/01 07:58:48;;;;;;;27.58;9.93;;;;;;;;;;5065435;28;20013;-64
2021/07/01 08:01:14;;;;;;;35.90;10.02;;;;;;;;;;5051912;28;20326;-64
2021/07/01 08:03:40;;;;;;;29.65;9.88;;;;;;;;;;5067237;28;20056;-64
2021/07/01 08:06:05;;;;;;;20.42;8.68;;;;;;;;;;5058991;28;20028;-64
2021/07/01 08:08:31;;;;;;;26.30;7.75;;;;;;;;;;5055128;28;20044;-64
2021/07/01 08:10:58;;;;;;;20.83;7.60;;;;;;;;;;5072397;28;20017;-64
2021/07/01 08:13:24;;;;;;;21.48;8.13;;;;;;;;;;5063265;28;20017;-64
2021/07/01 08:15:49;;;;;;;21.30;8.50;;;;;;;;;;5044465;28;20053;-64
2021/07/01 08:18:19;;;;;;;20.80;8.10;;;;;;;;;;5049033;28;20489;-64
2021/07/01 08:20:45;;;;;;;19.40;8.35;;;;;;;;;;5051335;28;20040;-64
2021/07/01 08:23:10;;;;;;;21.67;7.65;;;;;;;;;;5058673;28;20024;-64
2021/07/01 08:25:36;;;;;;;20.63;7.80;;;;;;;;;;5063193;28;20024;-64
2021/07/01 08:28:01;;;;;;;20.92;8.55;;;;;;;;;;5058102;28;20592;-64
2021/07/01 08:30:27;;;;;;;21.88;9.32;;;;;;;;;;5053547;28;20036;-64
2021/07/01 08:32:53;;;;;;;24.30;9.35;;;;;;;;;;5063331;28;20084;-64
2021/07/01 08:35:21;;;;;;;23.85;8.68;;;;;;;;;;5052481;28;20100;-64
2021/07/01 08:37:48;;;;;;;24.25;9.40;;;;;;;;;;5057206;28;20020;-64
2021/07/01 08:40:14;;;;;;;26.60;8.57;;;;;;;;;;5056577;28;20030;-64
2021/07/01 08:42:39;;;;;;;23.20;7.72;;;;;;;;;;5053559;28;20108;-64
2021/07/01 08:45:06;;;;;;;26.48;9.25;;;;;;;;;;5055339;28;20017;-64
2021/07/01 08:47:32;;;;;;;19.60;8.48;;;;;;;;;;5050800;28;20021;-64
2021/07/01 08:49:59;;;;;;;25.55;7.97;;;;;;;;;;5048947;28;20029;-64
2021/07/01 08:52:25;;;;;;;19.75;7.57;;;;;;;;;;5050984;28;20382;-64
2021/07/01 08:54:55;;;;;;;18.67;7.97;;;;;;;;;;5059299;28;20031;-65
2021/07/01 08:57:24;;;;;;;24.58;9.70;;;;;;;;;;5069131;28;20036;-64
2021/07/01 08:59:55;;;;;;;26.90;8.57;;;;;;;;;;5058644;28;20128;-64
2021/07/01 09:02:20;;;;;;;;;;;;;;;;;;5059209;28;20272;-64
2021/07/01 09:04:50;;;;;;;25.02;8.20;;;;;;;;;;5037175;28;19909;-64
2021/07/01 09:07:20;;;;;;;17.48;7.75;;;;;;;;;;5032998;28;20111;-64
2021/07/01 09:09:49;;;;;;;25.25;7.53;;;;;;;;;;5052013;28;20024;-64
2021/07/01 09:12:15;;;;;;;19.10;8.52;;;;;;;;;;5065497;28;20016;-64
2021/07/01 09:14:41;;;;;;;27.20;10.07;;;;;;;;;;5063210;28;20098;-64
2021/07/01 09:17:08;;;;;;;20.10;10.38;;;;;;;;;;5058763;28;20036;-65
2021/07/01 09:19:34;;;;;;;24.00;10.88;;;;;;;;;;5052551;28;20024;-65
2021/07/01 09:22:00;;;;;;;24.52;10.32;;;;;;;;;;5060983;28;20380;-64
2021/07/01 09:24:27;;;;;;;26.63;10.88;;;;;;;;;;5052210;28;20016;-65
2021/07/01 09:26:55;;;;;;;27.25;10.70;;;;;;;;;;5040962;28;20025;-65
2021/07/01 09:29:20;;;;;;;20.23;9.93;;;;;;;;;;5063059;28;20032;-65
2021/07/01 09:31:45;;;;;;;23.80;10.00;;;;;;;;;;5053075;28;20512;-65
2021/07/01 09:34:11;;;;;;;22.42;9.68;;;;;;;;;;5050064;28;20068;-65
2021/07/01 09:36:36;;;;;;;31.27;10.85;;;;;;;;;;5049202;28;20466;-65
2021/07/01 09:39:03;;;;;;;24.67;11.02;;;;;;;;;;5059711;28;20491;-64
2021/07/01 09:41:28;;;;;;;23.98;11.32;;;;;;;;;;5068403;28;20016;-65
2021/07/01 09:43:55;;;;;;;24.08;10.45;;;;;;;;;;5050103;28;20017;-65
2021/07/01 09:46:22;;;;;;;31.65;9.90;;;;;;;;;;5048376;28;20108;-64
2021/07/01 09:48:49;;;;;;;28.40;9.73;;;;;;;;;;5049979;28;20032;-64
2021/07/01 09:51:16;;;;;;;26.33;9.25;;;;;;;;;;5051975;28;20481;-64
2021/07/01 09:53:45;;;;;;;18.65;9.15;;;;;;;;;;5050087;28;20563;-64
2021/07/01 09:56:12;;;;;;;19.50;9.52;;;;;;;;;;5048050;28;20017;-64
2021/07/01 09:58:38;;;;;;;27.17;9.95;;;;;;;;;;5045166;28;20028;-64
2021/07/01 10:01:04;;;;;;;22.75;8.63;;;;;;;;;;5042600;28;20059;-65
2021/07/01 10:03:29;;;;;;;18.38;8.75;;;;;;;;;;5045945;28;21786;-64
2021/07/01 10:05:54;;;;;;;19.25;8.23;;;;;;;;;;5048180;28;20469;-64
2021/07/01 10:08:19;;;;;;;20.67;8.17;;;;;;;;;;5041195;28;20035;-64
2021/07/01 10:10:48;;;;;;;17.25;7.75;;;;;;;;;;5041573;28;20298;-64
2021/07/01 10:13:13;;;;;;;21.80;7.53;;;;;;;;;;5042276;28;20025;-64
2021/07/01 10:15:39;;;;;;;19.85;8.55;;;;;;;;;;5039839;28;20032;-64
2021/07/01 10:18:07;;;;;;;23.50;8.30;;;;;;;;;;5041802;28;20470;-64
2021/07/01 10:20:34;;;;;;;17.83;8.13;;;;;;;;;;5041275;28;20094;-64
2021/07/01 10:23:00;;;;;;;17.00;7.60;;;;;;;;;;5040445;28;20024;-65
2021/07/01 10:25:30;;;;;;;23.67;8.75;;;;;;;;;;5041900;28;20074;-64
2021/07/01 10:27:56;;;;;;;17.38;7.72;;;;;;;;;;5040401;28;20025;-64
2021/07/01 10:30:24;;;;;;;21.42;7.97;;;;;;;;;;5041873;28;20047;-64
2021/07/01 10:32:56;;;;;;;15.40;7.75;;;;;;;;;;5044439;28;20033;-64
2021/07/01 10:35:31;;;;;;;21.48;7.25;;;;;;;;;;5040095;28;20036;-64
2021/07/01 10:38:17;;;;;;;24.30;8.23;;;;;;;;;;5041319;28;20025;-64
2021/07/01 10:40:46;;;;;;;25.70;8.50;;;;;;;;;;5039274;28;20040;-65
2021/07/01 10:43:14;;;;;;;22.63;8.38;;;;;;;;;;5040897;28;20075;-65
2021/07/01 10:45:52;;;;;;;19.20;9.07;;;;;;;;;;5045822;28;20033;-64
2021/07/01 10:48:18;;;;;;;23.48;9.75;;;;;;;;;;5041251;28;20021;-64
2021/07/01 10:50:45;;;;;;;23.35;9.32;;;;;;;;;;5042431;28;20074;-64
2021/07/01 10:53:42;;;;;;;37.28;13.07;;;;;;;;;;5040146;28;20100;-64
2021/07/01 10:56:17;;;;;;;22.90;7.95;;;;;;;;;;5023267;28;20413;-64
2021/07/01 10:58:43;;;;;;;18.83;8.35;;;;;;;;;;5042457;28;20413;-64
2021/07/01 11:01:08;;;;;;;22.30;7.97;;;;;;;;;;5049119;28;20585;-64
2021/07/01 11:03:34;;;;;;;22.00;8.43;;;;;;;;;;5043929;28;21203;-65
2021/07/01 11:06:01;;;;;;;25.30;7.97;;;;;;;;;;5043726;28;20020;-64
2021/07/01 11:08:28;;;;;;;27.08;7.40;;;;;;;;;;5039532;28;20544;-65
2021/07/01 11:10:54;;;;;;;23.88;8.07;;;;;;;;;;5041203;28;20029;-64
2021/07/01 11:13:19;;;;;;;20.92;8.80;;;;;;;;;;5038708;28;20031;-65
2021/07/01 11:16:03;;;;;;;19.83;8.68;;;;;;;;;;5041965;28;20052;-64
2021/07/01 11:18:33;;;;;;;21.40;9.93;;;;;;;;;;5040168;28;20020;-64
2021/07/01 11:21:14;;;;;;;17.75;9.77;;;;;;;;;;5040817;28;20021;-65
2021/07/01 11:23:41;;;;;;;23.85;8.77;;;;;;;;;;5057620;28;20560;-64
2021/07/01 11:26:22;;;;;;;20.27;9.15;;;;;;;;;;5045623;28;20033;-64
2021/07/01 11:28:47;;;;;;;26.33;8.23;;;;;;;;;;5043590;28;20039;-64
2021/07/01 11:31:13;;;;;;;22.42;8.75;;;;;;;;;;5041349;28;20021;-64
2021/07/01 11:33:38;;;;;;;17.95;7.28;;;;;;;;;;5043531;28;20452;-65
2021/07/01 11:36:11;;;;;;;21.88;7.45;;;;;;;;;;5044866;28;20021;-64
2021/07/01 11:38:37;;;;;;;21.45;8.05;;;;;;;;;;5044556;28;20013;-64
2021/07/01 11:41:05;;;;;;;22.75;9.48;;;;;;;;;;5043984;28;20390;-64
2021/07/01 11:43:35;;;;;;;20.65;9.02;;;;;;;;;;5049366;28;20021;-64
2021/07/01 11:46:00;;;;;;;26.00;8.00;;;;;;;;;;5046619;28;20492;-64
2021/07/01 11:48:26;;;;;;;16.67;8.40;;;;;;;;;;5049275;28;20033;-65
2021/07/01 11:50:53;;;;;;;17.92;8.63;;;;;;;;;;5041509;28;20040;-64
2021/07/01 11:53:19;;;;;;;19.25;9.27;;;;;;;;;;5043719;28;20481;-65
2021/07/01 11:55:48;;;;;;;22.33;9.38;;;;;;;;;;5043699;28;20025;-65
2021/07/01 11:58:14;;;;;;;18.95;8.55;;;;;;;;;;5045136;28;20465;-64
2021/07/01 12:00:40;;;;;;;21.42;9.18;;;;;;;;;;5042903;28;20033;-65
2021/07/01 12:03:06;;;;;;;25.85;8.52;;;;;;;;;;5043851;28;20021;-65
2021/07/01 12:05:32;;;;;;;18.08;9.07;;;;;;;;;;5043421;28;20039;-65
2021/07/01 12:07:58;;;;;;;30.25;11.27;;;;;;;;;;5043594;28;20104;-65
2021/07/01 12:10:24;;;;;;;27.77;10.85;;;;;;;;;;5045725;28;20112;-64
2021/07/01 12:12:50;;;;;;;26.55;9.93;;;;;;;;;;5049601;28;20100;-65
2021/07/01 12:15:16;;;;;;;20.63;8.52;;;;;;;;;;5044264;28;20079;-64
2021/07/01 12:17:55;;;;;;;18.95;9.30;;;;;;;;;;5042828;28;20025;-64
2021/07/01 12:20:39;;;;;;;24.75;8.48;;;;;;;;;;5043244;28;20071;-64
2021/07/01 12:23:20;;;;;;;18.05;8.25;;;;;;;;;;5058959;28;20017;-64
2021/07/01 12:25:47;;;;;;;20.13;8.60;;;;;;;;;;5045896;28;20025;-64
2021/07/01 12:28:13;;;;;;;28.50;8.40;;;;;;;;;;5043276;28;20033;-64
2021/07/01 12:30:56;;;;;;;24.02;8.68;;;;;;;;;;5043880;28;20025;-64
2021/07/01 12:33:40;;;;;;;17.67;7.68;;;;;;;;;;5042914;28;20082;-64
2021/07/01 12:36:22;;;;;;;16.95;7.88;;;;;;;;;;5048789;28;20032;-64
2021/07/01 12:39:03;;;;;;;22.80;9.70;;;;;;;;;;5041375;28;20020;-64
2021/07/01 12:41:28;;;;;;;19.92;8.05;;;;;;;;;;5042910;28;20401;-64
2021/07/01 12:43:54;;;;;;;25.08;9.75;;;;;;;;;;5042247;28;20009;-64
2021/07/01 12:46:37;;;;;;;26.23;11.00;;;;;;;;;;5042679;28;20033;-64
2021/07/01 12:49:03;;;;;;;25.95;11.02;;;;;;;;;;5043179;28;20028;-64
2021/07/01 12:51:44;;;;;;;25.20;11.90;;;;;;;;;;5042852;28;20020;-65
2021/07/01 12:54:15;;;;;;;27.52;12.65;;;;;;;;;;5042159;28;20051;-64
2021/07/01 12:56:40;;;;;;;25.58;11.85;;;;;;;;;;5042983;28;20033;-64
2021/07/01 12:59:06;;;;;;;28.35;13.90;;;;;;;;;;5050987;28;20091;-64
2021/07/01 13:01:31;;;;;;;22.75;11.73;;;;;;;;;;5047516;28;20043;-64
2021/07/01 13:03:58;;;;;;;27.25;12.75;;;;;;;;;;5041982;28;20139;-64
2021/07/01 13:06:24;;;;;;;27.27;11.38;;;;;;;;;;5045147;28;20108;-64
2021/07/01 13:08:49;;;;;;;23.42;12.23;;;;;;;;;;5041782;28;20028;-64
2021/07/01 13:11:14;;;;;;;29.50;13.52;;;;;;;;;;5042006;28;20028;-64
2021/07/01 13:13:39;;;;;;;28.95;13.10;;;;;;;;;;5042183;28;20430;-64
2021/07/01 13:16:08;;;;;;;25.10;12.93;;;;;;;;;;5044410;28;20051;-64
2021/07/01 13:18:33;;;;;;;24.40;13.25;;;;;;;;;;5042329;28;20612;-64
2021/07/01 13:21:08;;;;;;;27.25;14.95;;;;;;;;;;5042020;28;20020;-65
2021/07/01 13:23:33;;;;;;;33.65;14.02;;;;;;;;;;5042779;28;20044;-64
2021/07/01 13:25:58;;;;;;;24.85;13.05;;;;;;;;;;5041881;28;20017;-64
2021/07/01 13:28:25;;;;;;;29.23;14.07;;;;;;;;;;5042326;28;20021;-64
2021/07/01 13:30:52;;;;;;;31.23;16.02;;;;;;;;;;5043716;28;20305;-64
2021/07/01 13:33:18;;;;;;;38.53;15.82;;;;;;;;;;5041561;28;20025;-64
2021/07/01 13:35:44;;;;;;;30.00;14.43;;;;;;;;;;5041134;28;20024;-65
2021/07/01 13:38:12;;;;;;;37.47;15.68;;;;;;;;;;5045541;28;20100;-64
2021/07/01 13:40:39;;;;;;;26.27;15.65;;;;;;;;;;5041218;28;20028;-64
2021/07/01 13:43:10;;;;;;;27.77;13.38;;;;;;;;;;5042638;28;20025;-65
2021/07/01 13:45:35;;;;;;;32.03;13.75;;;;;;;;;;5041237;28;20021;-65
2021/07/01 13:48:02;;;;;;;24.08;13.00;;;;;;;;;;5042593;28;20024;-64
2021/07/01 13:50:27;;;;;;;30.20;14.02;;;;;;;;;;5043590;28;20028;-64
2021/07/01 13:52:53;;;;;;;28.55;14.57;;;;;;;;;;5042775;28;20020;-65
2021/07/01 13:55:21;;;;;;;29.50;13.82;;;;;;;;;;5039737;28;20025;-65
2021/07/01 13:57:47;;;;;;;25.83;13.80;;;;;;;;;;5038069;28;20540;-64
2021/07/01 14:00:12;;;;;;;29.85;14.98;;;;;;;;;;5041791;28;20056;-64
2021/07/01 14:02:38;;;;;;;26.52;14.75;;;;;;;;;;5041457;28;20456;-64
2021/07/01 14:05:03;;;;;;;28.97;13.73;;;;;;;;;;5041021;28;20067;-65
2021/07/01 14:07:29;;;;;;;33.13;15.38;;;;;;;;;;5041878;28;20267;-65
2021/07/01 14:10:04;;;;;;;28.30;13.23;;;;;;;;;;5041180;28;20020;-65
2021/07/01 14:12:29;;;;;;;32.92;14.75;;;;;;;;;;5040782;28;20021;-64
2021/07/01 14:14:55;;;;;;;29.63;13.43;;;;;;;;;;5040977;28;20056;-65
2021/07/01 14:17:21;;;;;;;26.42;13.30;;;;;;;;;;5040432;28;20017;-64
2021/07/01 14:19:48;;;;;;;27.50;12.07;;;;;;;;;;5044565;28;20096;-64
2021/07/01 14:22:13;;;;;;;23.75;13.05;;;;;;;;;;5047830;28;20021;-64